createdAt,value
2022-12-22T00:01:04.886Z,1.20
2022-12-22T00:03:50.469Z,1.50
2022-12-22T00:06:36.004Z,1.30
2022-12-22T00:09:21.555Z,1.50
2022-12-22T00:12:08.071Z,1.60
2022-12-22T00:14:53.539Z,2.95
2022-12-22T00:17:43.524Z,2.05
2022-12-22T00:20:33.468Z,1.20
2022-12-22T00:23:18.918Z,1.60
2022-12-22T00:26:05.020Z,1.70
2022-12-22T00:28:52.776Z,1.55
2022-12-22T00:31:39.091Z,1.63
2022-12-22T00:34:32.465Z,1.60
2022-12-22T00:37:18.364Z,1.95
2022-12-22T00:40:03.679Z,1.90
2022-12-22T00:42:50.364Z,2.17
2022-12-22T00:45:37.634Z,2.25
2022-12-22T00:48:24.996Z,1.77
2022-12-22T00:51:10.290Z,2.15
2022-12-22T00:53:55.758Z,2.50
2022-12-22T00:56:41.074Z,1.98
2022-12-22T00:59:28.402Z,2.22
2022-12-22T01:02:15.496Z,3.20
2022-12-22T01:05:01.002Z,2.00
2022-12-22T01:07:46.285Z,2.88
2022-12-22T01:10:32.991Z,2.33
2022-12-22T01:13:18.796Z,2.50
2022-12-22T01:16:04.128Z,2.40
2022-12-22T01:18:50.753Z,2.05
2022-12-22T01:21:37.026Z,2.50
2022-12-22T01:24:28.893Z,2.90
2022-12-22T01:27:14.259Z,2.20
2022-12-22T01:29:59.524Z,2.60
2022-12-22T01:32:45.020Z,2.75
2022-12-22T01:35:37.555Z,2.47
2022-12-22T01:38:23.063Z,2.28
2022-12-22T01:41:09.307Z,2.10
2022-12-22T01:43:55.076Z,1.70
2022-12-22T01:46:43.576Z,2.17
2022-12-22T01:49:33.160Z,1.90
2022-12-22T01:52:20.386Z,2.20
2022-12-22T01:55:06.943Z,1.98
2022-12-22T01:57:52.636Z,1.98
2022-12-22T02:00:38.148Z,1.50
2022-12-22T02:03:33.956Z,1.88
2022-12-22T02:06:32.796Z,1.50
2022-12-22T02:09:32.452Z,1.67
2022-12-22T02:12:24.351Z,1.63
2022-12-22T02:15:18.663Z,1.80
2022-12-22T02:18:16.276Z,2.03
2022-12-22T02:21:05.965Z,1.52
2022-12-22T02:24:06.776Z,1.92
2022-12-22T02:26:55.324Z,1.77
2022-12-22T02:29:45.970Z,1.30
2022-12-22T02:32:31.124Z,1.30
2022-12-22T02:35:16.946Z,1.77
2022-12-22T02:38:11.417Z,1.40
2022-12-22T02:41:05.656Z,1.15
2022-12-22T02:44:08.717Z,1.40
2022-12-22T02:47:03.160Z,1.60
2022-12-22T02:49:58.028Z,1.33
2022-12-22T02:52:48.260Z,1.40
2022-12-22T02:55:34.168Z,1.60
2022-12-22T02:58:19.527Z,1.05
2022-12-22T03:01:06.674Z,1.05
2022-12-22T03:03:52.161Z,0.80
2022-12-22T03:06:37.571Z,1.00
2022-12-22T03:09:23.307Z,1.40
2022-12-22T03:12:08.722Z,1.10
2022-12-22T03:14:54.101Z,1.35
2022-12-22T03:17:40.694Z,1.40
2022-12-22T03:20:27.337Z,1.10
2022-12-22T03:23:12.699Z,1.30
2022-12-22T03:25:53.092Z,1.42
2022-12-22T03:28:21.875Z,1.35
2022-12-22T03:30:56.267Z,1.13
2022-12-22T03:33:25.426Z,1.10
2022-12-22T03:35:53.268Z,1.20
2022-12-22T03:38:21.231Z,1.30
2022-12-22T03:40:48.960Z,1.17
2022-12-22T03:43:35.610Z,1.20
2022-12-22T03:46:23.766Z,0.98
2022-12-22T03:49:06.779Z,0.75
2022-12-22T03:51:35.147Z,1.00
2022-12-22T03:54:02.823Z,1.08
2022-12-22T03:56:30.824Z,1.00
2022-12-22T03:58:59.636Z,1.10
2022-12-22T04:01:27.468Z,0.98
2022-12-22T04:03:56.591Z,0.98
2022-12-22T04:06:24.769Z,0.98
2022-12-22T04:08:52.627Z,0.80
2022-12-22T04:11:38.041Z,1.10
2022-12-22T04:14:05.788Z,0.85
2022-12-22T04:16:33.869Z,1.00
2022-12-22T04:19:02.950Z,0.80
2022-12-22T04:21:30.680Z,1.00
2022-12-22T04:23:58.304Z,1.20
2022-12-22T04:26:26.468Z,0.80
2022-12-22T04:28:54.639Z,1.15
2022-12-22T04:31:23.126Z,1.63
2022-12-22T04:33:51.400Z,0.80
2022-12-22T04:36:20.935Z,1.10
2022-12-22T04:38:48.604Z,1.00
2022-12-22T04:41:16.391Z,1.00
2022-12-22T04:43:43.976Z,1.15
2022-12-22T04:46:11.697Z,0.90
2022-12-22T04:48:39.455Z,0.90
2022-12-22T04:51:07.712Z,0.85
2022-12-22T04:53:36.797Z,1.02
2022-12-22T04:56:07.345Z,0.95
2022-12-22T04:58:35.842Z,0.93
2022-12-22T05:01:11.249Z,1.17
2022-12-22T05:03:39.073Z,1.38
2022-12-22T05:06:07.315Z,0.82
2022-12-22T05:08:37.469Z,1.27
2022-12-22T05:11:05.453Z,0.80
2022-12-22T05:13:33.644Z,0.90
2022-12-22T05:16:06.096Z,2.93
2022-12-22T05:18:34.133Z,1.45
2022-12-22T05:21:04.604Z,0.80
2022-12-22T05:23:32.211Z,0.80
2022-12-22T05:26:03.041Z,1.08
2022-12-22T05:28:32.156Z,1.00
2022-12-22T05:31:04.916Z,1.17
2022-12-22T05:33:32.686Z,1.35
2022-12-22T05:36:00.435Z,1.02
2022-12-22T05:38:28.113Z,0.68
2022-12-22T05:41:03.280Z,0.90
2022-12-22T05:43:33.307Z,1.20
2022-12-22T05:46:03.375Z,2.92
2022-12-22T05:48:37.388Z,1.63
2022-12-22T05:51:06.738Z,1.27
2022-12-22T05:53:34.378Z,1.52
2022-12-22T05:56:02.784Z,1.20
2022-12-22T05:58:30.500Z,1.37
2022-12-22T06:01:00.769Z,0.68
2022-12-22T06:03:29.265Z,1.30
2022-12-22T06:05:57.917Z,1.50
2022-12-22T06:08:26.077Z,1.20
2022-12-22T06:10:55.240Z,1.38
2022-12-22T06:13:23.020Z,1.20
2022-12-22T06:15:51.307Z,1.42
2022-12-22T06:18:20.420Z,1.50
2022-12-22T06:20:48.327Z,1.08
2022-12-22T06:23:15.927Z,1.52
2022-12-22T06:25:43.555Z,1.17
2022-12-22T06:28:11.196Z,1.00
2022-12-22T06:30:38.828Z,1.38
2022-12-22T06:33:06.764Z,1.75
2022-12-22T06:35:37.740Z,1.00
2022-12-22T06:38:06.073Z,0.98
2022-12-22T06:40:33.919Z,1.20
2022-12-22T06:43:10.351Z,1.70
2022-12-22T06:45:40.424Z,1.50
2022-12-22T06:48:09.757Z,1.70
2022-12-22T06:50:39.029Z,1.70
2022-12-22T06:53:06.933Z,1.57
2022-12-22T06:55:34.682Z,2.42
2022-12-22T06:58:02.300Z,1.00
2022-12-22T07:00:30.176Z,1.43
2022-12-22T07:02:58.026Z,1.60
2022-12-22T07:05:26.388Z,2.07
2022-12-22T07:07:55.373Z,1.57
2022-12-22T07:10:43.037Z,2.03
2022-12-22T07:13:20.406Z,2.20
2022-12-22T07:15:55.283Z,1.25
2022-12-22T07:18:27.532Z,2.20
2022-12-22T07:20:55.553Z,2.17
2022-12-22T07:23:24.787Z,1.80
2022-12-22T07:25:52.546Z,1.77
2022-12-22T07:28:21.321Z,1.25
2022-12-22T07:30:49.324Z,1.60
2022-12-22T07:33:17.085Z,1.80
2022-12-22T07:35:44.991Z,2.28
2022-12-22T07:38:12.739Z,1.73
2022-12-22T07:40:43.113Z,1.95
2022-12-22T07:43:10.985Z,1.73
2022-12-22T07:45:39.297Z,1.87
2022-12-22T07:48:27.478Z,1.63
2022-12-22T07:50:55.309Z,1.60
2022-12-22T07:53:23.113Z,2.37
2022-12-22T07:55:52.157Z,1.45
2022-12-22T07:58:19.852Z,1.70
2022-12-22T08:00:47.988Z,1.50
2022-12-22T08:03:15.791Z,2.22
2022-12-22T08:05:44.531Z,1.67
2022-12-22T08:08:12.281Z,2.33
2022-12-22T08:10:39.986Z,1.70
2022-12-22T08:13:09.108Z,1.60
2022-12-22T08:15:38.003Z,1.58
2022-12-22T08:18:05.824Z,2.80
2022-12-22T08:20:33.549Z,1.75
2022-12-22T08:23:01.213Z,1.83
2022-12-22T08:25:28.947Z,1.50
2022-12-22T08:27:58.029Z,1.45
2022-12-22T08:30:27.122Z,2.10
2022-12-22T08:32:54.826Z,2.70
2022-12-22T08:35:22.754Z,2.30
2022-12-22T08:37:51.183Z,1.57
2022-12-22T08:40:22.330Z,1.88
2022-12-22T08:42:53.312Z,2.25
2022-12-22T08:45:22.256Z,1.97
2022-12-22T08:47:51.280Z,1.90
2022-12-22T08:50:19.256Z,1.92
2022-12-22T08:52:47.045Z,1.80
2022-12-22T08:55:14.843Z,1.90
2022-12-22T08:57:42.899Z,1.90
2022-12-22T09:00:13.140Z,2.50
2022-12-22T09:02:41.178Z,1.60
2022-12-22T09:05:10.593Z,1.70
2022-12-22T09:07:38.269Z,1.45
2022-12-22T09:10:06.637Z,1.77
2022-12-22T09:12:35.226Z,1.30
2022-12-22T09:15:02.948Z,2.33
2022-12-22T09:17:30.608Z,1.87
2022-12-22T09:19:58.404Z,1.10
2022-12-22T09:22:28.042Z,2.23
2022-12-22T09:24:56.610Z,1.67
2022-12-22T09:27:24.253Z,1.87
2022-12-22T09:29:51.930Z,1.58
2022-12-22T09:32:19.669Z,1.90
2022-12-22T09:34:48.746Z,1.45
2022-12-22T09:37:16.763Z,1.90
2022-12-22T09:39:46.820Z,1.70
2022-12-22T09:42:16.365Z,2.35
2022-12-22T09:44:46.497Z,1.80
2022-12-22T09:47:19.419Z,1.95
2022-12-22T09:49:47.214Z,1.88
2022-12-22T09:52:24.850Z,3.50
2022-12-22T09:54:53.907Z,1.23
2022-12-22T09:57:22.013Z,2.50
2022-12-22T09:59:49.672Z,2.17
2022-12-22T10:02:27.618Z,3.30
2022-12-22T10:05:11.690Z,2.35
2022-12-22T10:07:42.396Z,1.92
2022-12-22T10:10:24.894Z,1.92
2022-12-22T10:12:57.339Z,1.88
2022-12-22T10:15:25.567Z,1.90
2022-12-22T10:17:55.339Z,1.13
2022-12-22T10:20:26.331Z,1.30
2022-12-22T10:22:56.869Z,1.88
2022-12-22T10:25:51.895Z,1.40
2022-12-22T10:28:23.213Z,1.48
2022-12-22T10:30:51.331Z,1.80
2022-12-22T10:33:20.054Z,2.22
2022-12-22T10:35:51.903Z,1.75
2022-12-22T10:38:26.718Z,1.23
2022-12-22T10:41:02.453Z,3.43
2022-12-22T10:43:33.740Z,1.20
2022-12-22T10:46:03.456Z,1.40
2022-12-22T10:48:34.587Z,1.10
2022-12-22T10:51:03.676Z,1.70
2022-12-22T10:53:44.514Z,1.40
2022-12-22T10:56:23.136Z,1.55
2022-12-22T10:58:53.372Z,1.42
2022-12-22T11:01:27.608Z,2.70
2022-12-22T11:03:55.408Z,2.40
2022-12-22T11:06:23.331Z,1.90
2022-12-22T11:08:52.197Z,2.03
2022-12-22T11:11:36.047Z,1.23
2022-12-22T11:14:13.969Z,1.33
2022-12-22T11:16:48.937Z,1.90
2022-12-22T11:19:40.288Z,2.22
2022-12-22T11:22:17.365Z,1.60
2022-12-22T11:24:58.815Z,1.50
2022-12-22T11:27:45.777Z,1.47
2022-12-22T11:30:16.905Z,1.33
2022-12-22T11:33:01.205Z,1.23
2022-12-22T11:35:43.311Z,1.30
2022-12-22T11:38:21.604Z,1.07
2022-12-22T11:40:59.277Z,1.50
2022-12-22T11:43:37.476Z,1.00
2022-12-22T11:46:22.583Z,1.20
2022-12-22T11:49:03.410Z,0.93
2022-12-22T11:51:47.877Z,0.83
2022-12-22T11:54:49.998Z,1.20
2022-12-22T11:57:28.093Z,0.90
2022-12-22T12:00:04.166Z,0.97
2022-12-22T12:02:57.556Z,0.70
2022-12-22T12:05:41.764Z,1.13
2022-12-22T12:08:22.444Z,1.00
2022-12-22T12:10:54.160Z,0.80
2022-12-22T12:13:36.748Z,1.10
2022-12-22T12:16:18.386Z,1.00
2022-12-22T12:19:00.430Z,0.80
2022-12-22T12:21:29.532Z,0.80
2022-12-22T12:24:27.435Z,1.30
2022-12-22T12:27:03.203Z,0.90
2022-12-22T12:29:38.436Z,1.20
2022-12-22T12:32:14.046Z,2.20
2022-12-22T12:34:47.606Z,1.47
2022-12-22T12:37:26.373Z,1.20
2022-12-22T12:40:02.601Z,1.87
2022-12-22T12:42:34.129Z,1.97
2022-12-22T12:45:02.499Z,1.73
2022-12-22T12:47:33.739Z,1.60
2022-12-22T12:50:31.862Z,1.27
2022-12-22T12:53:10.737Z,1.10
2022-12-22T12:56:05.973Z,1.00
2022-12-22T12:58:52.818Z,0.87
2022-12-22T13:01:58.159Z,1.10
2022-12-22T13:05:14.804Z,0.70
2022-12-22T13:08:29.712Z,1.00
2022-12-22T13:12:11.369Z,1.10
2022-12-22T13:14:58.587Z,1.20
2022-12-22T13:17:41.954Z,1.23
2022-12-22T13:20:16.371Z,1.30
2022-12-22T13:22:44.976Z,1.00
2022-12-22T13:25:17.147Z,0.70
2022-12-22T13:27:46.621Z,1.00
2022-12-22T13:30:16.497Z,1.40
2022-12-22T13:32:47.042Z,1.00
2022-12-22T13:35:30.778Z,0.60
2022-12-22T13:37:59.935Z,1.00
2022-12-22T13:40:31.436Z,1.00
2022-12-22T13:43:04.000Z,0.60
2022-12-22T13:45:38.479Z,1.20
2022-12-22T13:48:13.325Z,1.30
2022-12-22T13:50:46.198Z,1.30
2022-12-22T13:53:49.380Z,1.47
2022-12-22T13:56:11.755Z,1.10
2022-12-22T13:58:46.084Z,1.30
2022-12-22T14:01:19.657Z,1.20
2022-12-22T14:04:00.256Z,1.10
2022-12-22T14:06:31.631Z,0.83
2022-12-22T14:09:12.803Z,0.77
2022-12-22T14:11:45.668Z,0.80
2022-12-22T14:14:23.954Z,0.93
2022-12-22T14:16:54.275Z,1.40
2022-12-22T14:19:23.885Z,1.67
2022-12-22T14:21:59.814Z,1.30
2022-12-22T14:24:33.209Z,1.10
2022-12-22T14:27:04.345Z,1.40
2022-12-22T14:29:33.793Z,1.80
2022-12-22T14:32:04.269Z,1.53
2022-12-22T14:34:34.210Z,2.20
2022-12-22T14:37:03.429Z,1.13
2022-12-22T14:39:34.621Z,1.40
2022-12-22T14:42:05.208Z,1.70
2022-12-22T14:44:37.855Z,1.63
2022-12-22T14:47:15.412Z,1.50
2022-12-22T14:49:48.996Z,2.20
2022-12-22T14:52:23.063Z,1.60
2022-12-22T14:54:53.772Z,2.13
2022-12-22T14:57:36.072Z,1.77
2022-12-22T15:00:10.643Z,1.10
2022-12-22T15:02:41.127Z,1.60
2022-12-22T15:05:14.321Z,2.23
2022-12-22T15:08:09.378Z,1.80
2022-12-22T15:10:40.041Z,1.93
2022-12-22T15:13:13.273Z,1.80
2022-12-22T15:15:42.418Z,2.37
2022-12-22T15:18:14.737Z,1.80
2022-12-22T15:20:42.747Z,2.00
2022-12-22T15:23:14.284Z,1.70
2022-12-22T15:25:42.093Z,2.67
2022-12-22T15:28:10.353Z,1.70
2022-12-22T15:30:38.421Z,2.00
2022-12-22T15:33:12.822Z,1.37
2022-12-22T15:35:41.277Z,1.93
2022-12-22T15:38:13.838Z,1.80
2022-12-22T15:40:41.860Z,2.10
2022-12-22T15:43:22.332Z,1.90
2022-12-22T15:45:57.662Z,1.60
2022-12-22T15:48:29.854Z,1.65
2022-12-22T15:50:58.459Z,1.43
2022-12-22T15:53:26.332Z,1.70
2022-12-22T15:55:55.821Z,1.45
2022-12-22T15:58:27.241Z,0.88
2022-12-22T16:00:55.049Z,1.90
2022-12-22T16:03:22.943Z,1.83
2022-12-22T16:05:52.898Z,1.63
2022-12-22T16:08:26.938Z,2.30
2022-12-22T16:10:54.651Z,1.77
2022-12-22T16:13:27.503Z,1.50
2022-12-22T16:15:57.402Z,1.90
2022-12-22T16:18:25.564Z,1.95
2022-12-22T16:20:55.644Z,1.90
2022-12-22T16:23:39.896Z,2.10
2022-12-22T16:26:07.637Z,1.60
2022-12-22T16:28:35.321Z,1.98
2022-12-22T16:31:03.048Z,2.30
2022-12-22T16:33:30.801Z,2.15
2022-12-22T16:35:59.888Z,2.63
2022-12-22T16:38:27.540Z,2.17
2022-12-22T16:40:55.246Z,3.53
2022-12-22T16:46:15.607Z,2.45
2022-12-22T16:48:46.328Z,2.55
2022-12-22T16:51:20.215Z,2.30
2022-12-22T16:53:47.925Z,2.17
2022-12-22T16:56:19.005Z,1.93
2022-12-22T16:58:47.285Z,1.65
2022-12-22T17:01:32.937Z,3.10
2022-12-22T17:04:07.808Z,3.08
2022-12-22T17:06:38.264Z,2.05
2022-12-22T17:09:12.422Z,2.40
2022-12-22T17:11:40.388Z,2.80
2022-12-22T17:14:16.228Z,3.77
2022-12-22T17:16:43.997Z,2.55
2022-12-22T17:19:12.306Z,2.60
2022-12-22T17:21:41.380Z,2.78
2022-12-22T17:24:14.023Z,2.95
2022-12-22T17:26:42.611Z,3.47
2022-12-22T17:29:15.563Z,3.70
2022-12-22T17:31:43.353Z,2.90
2022-12-22T17:34:16.763Z,2.42
2022-12-22T17:36:47.637Z,2.28
2022-12-22T17:39:17.142Z,2.67
2022-12-22T17:41:48.965Z,3.28
2022-12-22T17:44:22.301Z,3.35
2022-12-22T17:46:50.719Z,3.60
2022-12-22T17:49:20.124Z,3.30
2022-12-22T17:51:49.561Z,3.00
2022-12-22T17:54:23.365Z,2.97
2022-12-22T17:56:51.141Z,3.10
2022-12-22T17:59:18.967Z,3.70
2022-12-22T18:01:46.791Z,3.72
2022-12-22T18:04:14.507Z,3.50
2022-12-22T18:06:43.543Z,4.70
2022-12-22T18:09:19.590Z,3.20
2022-12-22T18:11:47.383Z,3.60
2022-12-22T18:14:16.140Z,3.30
2022-12-22T18:16:44.212Z,3.50
2022-12-22T18:19:11.999Z,4.07
2022-12-22T18:21:39.776Z,3.80
2022-12-22T18:24:10.963Z,3.20
2022-12-22T18:26:40.068Z,4.00
2022-12-22T18:29:14.210Z,3.13
2022-12-22T18:31:43.835Z,3.87
2022-12-22T18:34:11.879Z,3.45
2022-12-22T18:36:42.241Z,3.83
2022-12-22T18:39:17.778Z,2.97
2022-12-22T18:41:47.670Z,3.42
2022-12-22T18:44:17.681Z,3.40
2022-12-22T18:46:45.534Z,4.45
2022-12-22T18:49:13.476Z,3.83
2022-12-22T18:51:41.209Z,4.32
2022-12-22T18:54:22.318Z,3.60
2022-12-22T18:56:51.362Z,4.85
2022-12-22T18:59:24.200Z,3.47
2022-12-22T19:01:52.619Z,3.88
2022-12-22T19:04:20.783Z,3.25
2022-12-22T19:06:48.477Z,3.47
2022-12-22T19:09:16.959Z,3.00
2022-12-22T19:11:45.021Z,3.30
2022-12-22T19:14:19.662Z,3.92
2022-12-22T19:16:48.510Z,4.57
2022-12-22T19:19:21.152Z,3.45
2022-12-22T19:21:49.558Z,4.00
2022-12-22T19:24:17.447Z,3.08
2022-12-22T19:26:45.236Z,2.55
2022-12-22T19:29:15.462Z,3.72
2022-12-22T19:31:45.307Z,2.72
2022-12-22T19:34:17.427Z,3.83
2022-12-22T19:36:45.115Z,3.10
2022-12-22T19:39:12.768Z,3.85
2022-12-22T19:41:44.631Z,3.22
2022-12-22T19:44:19.733Z,2.35
2022-12-22T19:46:49.453Z,4.10
2022-12-22T19:49:19.541Z,2.92
2022-12-22T19:51:47.302Z,3.20
2022-12-22T19:54:15.378Z,3.40
2022-12-22T19:56:44.939Z,3.70
2022-12-22T19:59:28.251Z,2.60
2022-12-22T20:01:59.417Z,4.03
2022-12-22T20:04:27.584Z,3.63
2022-12-22T20:06:55.318Z,2.47
2022-12-22T20:09:23.019Z,3.38
2022-12-22T20:11:50.692Z,3.03
2022-12-22T20:14:19.563Z,3.67
2022-12-22T20:16:47.447Z,3.67
2022-12-22T20:19:17.236Z,2.95
2022-12-22T20:21:45.422Z,3.20
2022-12-22T20:24:21.759Z,2.50
2022-12-22T20:26:54.140Z,2.70
2022-12-22T20:29:22.680Z,2.85
2022-12-22T20:31:50.343Z,2.63
2022-12-22T20:34:19.715Z,2.58
2022-12-22T20:36:47.605Z,2.60
2022-12-22T20:39:18.851Z,2.28
2022-12-22T20:41:52.574Z,3.08
2022-12-22T20:44:21.397Z,2.40
2022-12-22T20:46:49.224Z,2.65
2022-12-22T20:49:17.680Z,2.30
2022-12-22T20:51:46.949Z,2.92
2022-12-22T20:54:15.295Z,2.50
2022-12-22T20:56:46.058Z,2.80
2022-12-22T20:59:17.170Z,2.38
2022-12-22T21:01:45.372Z,2.25
2022-12-22T21:04:16.412Z,1.90
2022-12-22T21:06:50.081Z,2.40
2022-12-22T21:09:18.824Z,3.35
2022-12-22T21:11:47.000Z,2.20
2022-12-22T21:14:15.094Z,2.47
2022-12-22T21:16:43.340Z,2.08
2022-12-22T21:19:19.372Z,1.90
2022-12-22T21:21:48.944Z,1.80
2022-12-22T21:24:18.546Z,2.13
2022-12-22T21:26:49.944Z,1.35
2022-12-22T21:29:21.430Z,1.90
2022-12-22T21:31:49.201Z,1.60
2022-12-22T21:34:17.554Z,1.90
2022-12-22T21:36:49.991Z,1.50
2022-12-22T21:39:24.750Z,1.67
2022-12-22T21:42:01.664Z,1.80
2022-12-22T21:44:30.229Z,1.88
2022-12-22T21:46:58.656Z,1.73
2022-12-22T21:49:28.362Z,2.22
2022-12-22T21:51:57.561Z,2.03
2022-12-22T21:54:26.678Z,1.95
2022-12-22T21:56:55.346Z,1.77
2022-12-22T21:59:23.819Z,1.90
2022-12-22T22:01:53.334Z,2.20
2022-12-22T22:04:21.727Z,2.28
2022-12-22T22:06:49.520Z,2.00
2022-12-22T22:09:18.578Z,1.70
2022-12-22T22:12:03.994Z,3.45
2022-12-22T22:14:31.599Z,1.75
2022-12-22T22:16:59.266Z,2.00
2022-12-22T22:19:26.919Z,1.73
2022-12-22T22:21:54.561Z,1.60
2022-12-22T22:24:23.587Z,1.58
2022-12-22T22:26:51.610Z,1.63
2022-12-22T22:29:19.583Z,2.13
2022-12-22T22:31:47.300Z,1.90
2022-12-22T22:34:15.260Z,2.00
2022-12-22T22:36:43.025Z,2.15
2022-12-22T22:39:10.977Z,2.17
2022-12-22T22:41:43.528Z,1.70
2022-12-22T22:44:11.710Z,1.50
2022-12-22T22:46:39.523Z,1.83
2022-12-22T22:49:07.760Z,1.77
2022-12-22T22:51:35.500Z,2.83
2022-12-22T22:54:03.564Z,1.67
2022-12-22T22:56:31.228Z,1.45
2022-12-22T22:59:00.921Z,1.40
2022-12-22T23:01:28.649Z,1.65
2022-12-22T23:03:56.385Z,1.30
2022-12-22T23:06:24.409Z,1.38
2022-12-22T23:08:52.035Z,0.90
2022-12-22T23:11:19.732Z,0.70
2022-12-22T23:13:47.352Z,1.20
2022-12-22T23:16:16.561Z,1.40
2022-12-22T23:18:44.260Z,2.15
2022-12-22T23:21:12.134Z,0.93
2022-12-22T23:23:39.789Z,1.38
2022-12-22T23:26:07.868Z,0.90
2022-12-22T23:28:35.528Z,0.98
2022-12-22T23:31:03.175Z,1.00
2022-12-22T23:33:33.332Z,1.00
2022-12-22T23:36:00.912Z,1.02
2022-12-22T23:38:28.584Z,1.42
2022-12-22T23:41:03.358Z,1.25
2022-12-22T23:43:31.467Z,1.13
2022-12-22T23:45:59.236Z,1.10
2022-12-22T23:48:27.023Z,1.65
2022-12-22T23:50:56.033Z,0.90
2022-12-22T23:53:24.418Z,1.10
2022-12-22T23:55:52.096Z,1.45
2022-12-22T23:58:20.084Z,1.23
